CheckWX is a tool to help pilots better visualize weather data.  It is not intended as a substitute for an official pre-flight weather briefing.

19:12:17 UTC

KDEH METAR
Decorah Municipal Airport
Decorah, Iowa, USA
Current

17 mins ago

KDEH 221855Z AUTO 15008KT 10SM CLR M04/M08 A3036 RMK AO2
Observed
Feb-22 @ 18:55 UTC
Wind
  • 150° at 8 KTS
Visibility
10 SM
Flight Rules
VFR
Cloud Levels
  • Clear skies
Temperature
-4°C / 25°F
Dewpoint
-8°C / 18°F
Humidity
74%
Altimeter
30.36" Hg
Pressure
1028.12 hPa
Previous

37 mins ago

KDEH 221835Z AUTO 15006KT 10SM CLR M04/M08 A3037 RMK AO2
Observed
Feb-22 @ 18:35 UTC
Wind
  • 150° at 6 KTS
Visibility
10 SM
Flight Rules
VFR
Cloud Levels
  • Clear skies
Temperature
-4°C / 25°F
Dewpoint
-8°C / 18°F
Humidity
74%
Altimeter
30.37" Hg
Pressure
1028.42 hPa
Previous

57 mins ago

KDEH 221815Z AUTO 15007KT 120V180 10SM CLR M05/M09 A3038 RMK AO2
Observed
Feb-22 @ 18:15 UTC
Wind
  • 150° at 7 KTS
Visibility
10 SM
Flight Rules
VFR
Cloud Levels
  • Clear skies
Temperature
-5°C / 23°F
Dewpoint
-9°C / 16°F
Humidity
74%
Altimeter
30.38" Hg
Pressure
1028.81 hPa